Time;durP1;ratioP1;P1;durP2;ratioP2;P2;SDS_P1;SDS_P2;PMS_P1;PMS_P2;Temp;Humidity;BMP_temperature;BMP_pressure;BME280_temperature;BME280_humidity;BME280_pressure;Samples;Min_cycle;Max_cycle;Signal;HPM_P1;HPM_P2
2022/04/01 00:00:46;;;;;;;21.80;19.27;;;4.70;99.90;;;;;;5096792;28;20027;-41
2022/04/01 00:03:12;;;;;;;21.42;18.35;;;4.80;99.90;;;;;;5096654;28;20027;-41
2022/04/01 00:05:39;;;;;;;22.75;18.08;;;4.80;99.90;;;;;;5096569;28;20042;-42
2022/04/01 00:08:05;;;;;;;21.40;18.35;;;4.70;99.90;;;;;;5114304;28;20028;-42
2022/04/01 00:10:30;;;;;;;24.42;19.83;;;4.70;99.90;;;;;;5115015;28;20105;-41
2022/04/01 00:12:56;;;;;;;23.70;19.13;;;4.80;99.90;;;;;;5114688;28;20144;-43
2022/04/01 00:15:22;;;;;;;23.27;18.75;;;4.80;99.90;;;;;;5096457;28;20483;-43
2022/04/01 00:17:47;;;;;;;23.35;19.20;;;4.70;99.90;;;;;;5114935;28;20036;-42
2022/04/01 00:20:13;;;;;;;23.92;19.48;;;4.80;99.90;;;;;;5115113;28;20438;-43
2022/04/01 00:22:40;;;;;;;22.67;17.70;;;4.80;99.90;;;;;;5079482;28;20106;-46
2022/04/01 00:25:06;;;;;;;22.05;17.95;;;4.70;99.90;;;;;;5114853;28;20024;-44
2022/04/01 00:27:32;;;;;;;23.60;18.88;;;4.60;99.90;;;;;;5095846;28;20035;-42
2022/04/01 00:29:57;;;;;;;23.40;19.55;;;4.60;99.90;;;;;;5114470;28;20382;-41
2022/04/01 00:32:23;;;;;;;22.90;18.52;;;4.70;99.90;;;;;;5114429;28;20085;-41
2022/04/01 00:34:49;;;;;;;25.58;19.58;;;4.60;99.90;;;;;;5114523;28;20020;-41
2022/04/01 00:37:16;;;;;;;21.63;17.95;;;4.60;99.90;;;;;;5114077;28;20106;-45
2022/04/01 00:39:42;;;;;;;25.65;19.30;;;4.60;99.90;;;;;;5114401;28;20467;-42
2022/04/01 00:42:08;;;;;;;22.80;18.52;;;4.50;99.90;;;;;;5114334;28;20020;-45
2022/04/01 00:44:37;;;;;;;21.42;18.33;;;4.50;99.90;;;;;;5114328;28;20019;-41
2022/04/01 00:47:04;;;;;;;21.88;17.50;;;4.60;99.90;;;;;;5113757;28;20035;-46
2022/04/01 00:49:31;;;;;;;22.40;17.95;;;4.60;99.90;;;;;;5095600;28;20031;-42
2022/04/01 00:51:59;;;;;;;22.55;17.80;;;4.60;99.90;;;;;;5114076;28;20034;-41
2022/04/01 00:54:25;;;;;;;24.08;19.38;;;4.60;99.90;;;;;;5095707;28;20110;-43
2022/04/01 00:56:51;;;;;;;23.15;19.15;;;4.60;99.90;;;;;;5113918;28;20123;-44
2022/04/01 00:59:17;;;;;;;23.02;19.05;;;4.50;99.90;;;;;;5095573;28;20110;-46
2022/04/01 01:01:43;;;;;;;22.15;17.52;;;4.60;99.90;;;;;;5114027;28;20493;-43
2022/04/01 01:04:12;;;;;;;22.52;19.00;;;4.50;99.90;;;;;;5113938;28;20024;-45
2022/04/01 01:06:43;;;;;;;20.38;17.33;;;4.50;99.90;;;;;;5113762;28;20051;-43
2022/04/01 01:09:09;;;;;;;24.55;18.92;;;4.50;99.90;;;;;;5113300;28;20015;-45
2022/04/01 01:11:35;;;;;;;21.02;18.63;;;4.50;99.90;;;;;;5113747;28;20031;-42
2022/04/01 01:14:06;;;;;;;23.55;20.02;;;4.60;99.90;;;;;;5114130;28;20043;-42
2022/04/01 01:16:32;;;;;;;24.73;20.23;;;4.50;99.90;;;;;;5113611;28;20088;-42
2022/04/01 01:19:10;;;;;;;23.92;19.33;;;4.40;99.90;;;;;;5113308;28;20383;-41
2022/04/01 01:21:36;;;;;;;22.38;19.08;;;4.30;99.90;;;;;;5113821;28;20110;-41
2022/04/01 01:24:03;;;;;;;24.08;19.50;;;4.30;99.90;;;;;;5113630;28;20024;-42
2022/04/01 01:26:31;;;;;;;21.42;17.92;;;4.30;99.90;;;;;;5112516;28;20372;-44
2022/04/01 01:28:57;;;;;;;21.85;17.83;;;4.20;99.90;;;;;;5113231;28;20057;-41
2022/04/01 01:31:23;;;;;;;21.65;18.52;;;4.30;99.90;;;;;;5113650;28;20030;-46
2022/04/01 01:33:50;;;;;;;21.75;18.00;;;4.40;99.90;;;;;;5095157;28;20028;-42
2022/04/01 01:36:15;;;;;;;20.88;17.48;;;4.30;99.90;;;;;;5113379;28;20027;-41
2022/04/01 01:38:41;;;;;;;21.85;18.33;;;4.40;99.90;;;;;;5113068;28;20020;-43
2022/04/01 01:41:07;;;;;;;20.98;17.58;;;4.40;99.90;;;;;;5112988;28;20028;-43
2022/04/01 01:43:32;;;;;;;22.92;17.55;;;4.20;99.90;;;;;;5094992;28;20430;-41
2022/04/01 01:45:58;;;;;;;20.42;16.80;;;4.30;99.90;;;;;;5113433;28;20570;-42
2022/04/01 01:48:24;;;;;;;19.75;16.70;;;4.30;99.90;;;;;;5112834;28;20603;-44
2022/04/01 01:56:17;;;;;;;19.38;16.48;;;4.40;99.90;;;;;;5112728;28;20035;-42
2022/04/01 01:58:44;;;;;;;20.80;16.77;;;4.50;99.90;;;;;;5094856;28;20019;-40
2022/04/01 02:01:10;;;;;;;19.15;15.52;;;4.40;99.90;;;;;;5113860;28;20267;-42
2022/04/01 02:03:36;;;;;;;19.80;16.35;;;4.40;99.90;;;;;;5095873;28;20020;-43
2022/04/01 02:06:04;;;;;;;19.92;16.63;;;4.40;99.90;;;;;;5113737;28;20061;-42
2022/04/01 02:08:30;;;;;;;21.42;16.98;;;4.40;99.90;;;;;;5113611;28;20034;-41
2022/04/01 02:10:57;;;;;;;20.80;17.45;;;4.40;99.90;;;;;;5113663;28;20027;-41
2022/04/01 02:13:23;;;;;;;19.75;16.45;;;4.30;99.90;;;;;;5113417;28;20038;-41
2022/04/01 02:15:49;;;;;;;18.10;15.70;;;4.30;99.90;;;;;;5113554;28;20103;-45
2022/04/01 02:18:15;;;;;;;18.92;15.63;;;4.30;99.90;;;;;;5112268;28;20550;-46
2022/04/01 02:20:41;;;;;;;16.83;15.02;;;4.30;99.90;;;;;;5094011;28;20049;-44
2022/04/01 02:23:07;;;;;;;16.65;14.55;;;4.30;99.90;;;;;;5114643;28;20107;-42
2022/04/01 02:25:33;;;;;;;18.05;15.55;;;4.30;99.90;;;;;;5115571;28;20045;-44
2022/04/01 02:27:58;;;;;;;18.27;16.10;;;4.20;99.90;;;;;;5096936;28;20065;-45
2022/04/01 02:30:25;;;;;;;17.73;15.23;;;4.20;99.90;;;;;;5097321;28;20023;-41
2022/04/01 02:32:50;;;;;;;17.58;15.23;;;4.20;99.90;;;;;;5115561;28;20020;-42
2022/04/01 02:35:16;;;;;;;18.48;15.50;;;4.20;99.90;;;;;;5112701;28;20042;-42
2022/04/01 02:37:41;;;;;;;20.58;15.77;;;4.20;99.90;;;;;;5094226;28;20030;-43
2022/04/01 02:40:09;;;;;;;16.17;13.75;;;4.20;99.90;;;;;;5112637;28;20023;-43
2022/04/01 02:42:34;;;;;;;18.42;15.30;;;4.10;99.90;;;;;;5113087;28;20053;-42
2022/04/01 02:45:00;;;;;;;19.33;16.02;;;4.10;99.90;;;;;;5112619;28;20019;-44
2022/04/01 02:47:25;;;;;;;18.70;15.60;;;4.00;99.90;;;;;;5112152;28;20028;-41
2022/04/01 02:49:51;;;;;;;19.10;15.48;;;4.00;99.90;;;;;;5112490;28;20106;-40
2022/04/01 02:52:17;;;;;;;17.90;16.00;;;4.00;99.90;;;;;;5112203;28;20391;-41
2022/04/01 02:54:43;;;;;;;16.88;14.93;;;4.00;99.90;;;;;;5112445;28;20034;-44
2022/04/01 02:57:09;;;;;;;17.52;14.85;;;4.00;99.90;;;;;;5111839;28;20024;-43
2022/04/01 02:59:35;;;;;;;18.80;15.18;;;4.10;99.90;;;;;;5112258;28;20034;-42
2022/04/01 03:02:00;;;;;;;19.45;16.23;;;4.10;99.90;;;;;;5112060;28;20028;-42
2022/04/01 03:04:26;;;;;;;18.75;16.05;;;4.10;99.90;;;;;;5111890;28;20032;-42
2022/04/01 03:06:51;;;;;;;19.48;16.10;;;4.10;99.90;;;;;;5112041;28;20152;-42
2022/04/01 03:09:17;;;;;;;20.23;16.25;;;4.10;99.90;;;;;;5111890;28;20098;-44
2022/04/01 03:11:43;;;;;;;19.40;16.08;;;4.00;99.90;;;;;;5112043;28;20024;-44
2022/04/01 03:14:10;;;;;;;17.08;15.27;;;4.10;99.90;;;;;;5112091;28;20051;-44
2022/04/01 03:16:37;;;;;;;17.90;15.23;;;4.10;99.90;;;;;;5111550;28;20016;-42
2022/04/01 03:19:04;;;;;;;20.50;16.08;;;4.20;99.90;;;;;;5111605;28;20028;-40
2022/04/01 03:21:30;;;;;;;17.58;15.18;;;4.20;99.90;;;;;;5111876;28;20055;-39
2022/04/01 03:23:56;;;;;;;17.23;15.20;;;4.10;99.90;;;;;;5111931;28;20058;-45
2022/04/01 03:26:21;;;;;;;16.05;14.07;;;4.00;99.90;;;;;;5093417;28;20482;-42
2022/04/01 03:28:48;;;;;;;18.70;14.85;;;4.00;99.90;;;;;;5111683;28;20174;-42
2022/04/01 03:31:14;;;;;;;15.60;13.95;;;4.00;99.90;;;;;;5111523;28;20031;-43
2022/04/01 03:33:44;;;;;;;17.92;15.35;;;4.00;99.90;;;;;;5111773;28;20020;-41
2022/04/01 03:36:10;;;;;;;17.15;15.00;;;4.00;99.90;;;;;;5112445;28;20023;-42
2022/04/01 03:38:35;;;;;;;16.75;14.93;;;3.90;99.90;;;;;;5112360;28;20080;-42
2022/04/01 03:41:05;;;;;;;18.20;14.80;;;4.00;99.90;;;;;;5111779;28;20062;-42
2022/04/01 03:43:31;;;;;;;17.88;15.63;;;4.00;99.90;;;;;;5111549;28;20035;-42
2022/04/01 03:45:58;;;;;;;17.52;15.27;;;4.00;99.90;;;;;;5113423;28;20662;-44
2022/04/01 03:48:52;;;;;;;17.20;14.52;;;4.00;99.90;;;;;;5114305;28;20042;-42
2022/04/01 03:51:21;;;;;;;16.10;14.38;;;4.00;99.90;;;;;;5117918;28;20019;-42
2022/04/01 03:53:57;;;;;;;18.33;16.10;;;3.90;99.90;;;;;;5117414;28;20068;-39
2022/04/01 03:56:28;;;;;;;21.35;14.82;;;4.00;99.90;;;;;;5116123;28;20098;-41
2022/04/01 03:58:59;;;;;;;17.98;15.38;;;4.00;99.90;;;;;;5097050;28;20027;-40
2022/04/01 04:01:26;;;;;;;18.45;15.27;;;4.00;99.90;;;;;;5115069;28;20019;-43
2022/04/01 04:03:55;;;;;;;19.15;14.98;;;4.00;99.90;;;;;;5115174;28;20020;-45
2022/04/01 04:06:21;;;;;;;17.92;15.00;;;3.90;99.90;;;;;;5115063;28;20394;-42
2022/04/01 04:08:48;;;;;;;16.33;14.07;;;3.90;99.90;;;;;;5114482;28;20405;-43
2022/04/01 04:11:17;;;;;;;18.77;15.25;;;4.00;99.90;;;;;;5114805;28;20426;-43
2022/04/01 04:13:45;;;;;;;15.02;13.38;;;4.10;99.90;;;;;;5114941;28;20080;-44
2022/04/01 04:16:19;;;;;;;16.98;14.50;;;4.00;99.90;;;;;;5114760;28;20058;-43
2022/04/01 04:18:52;;;;;;;14.73;13.15;;;4.00;99.90;;;;;;5114599;28;20028;-42
2022/04/01 04:21:27;;;;;;;16.73;14.48;;;4.10;99.90;;;;;;5139293;22;20046;-45
2022/04/01 04:23:58;;;;;;;16.55;14.65;;;4.00;99.90;;;;;;5120919;28;20502;-44
2022/04/01 04:26:25;;;;;;;15.73;14.05;;;4.00;99.90;;;;;;5120302;28;20059;-42
2022/04/01 04:28:57;;;;;;;16.20;13.70;;;4.00;99.90;;;;;;5119851;28;20027;-42
2022/04/01 04:31:29;;;;;;;15.90;14.18;;;4.00;99.90;;;;;;5120580;28;20028;-47
2022/04/01 04:33:56;;;;;;;15.10;13.43;;;4.00;99.90;;;;;;5120490;28;20081;-37
2022/04/01 04:36:34;;;;;;;14.13;12.30;;;4.00;99.90;;;;;;5120479;28;20020;-44
2022/04/01 04:39:04;;;;;;;15.20;12.10;;;4.00;99.90;;;;;;5119845;28;20027;-38
2022/04/01 04:41:32;;;;;;;15.63;12.55;;;4.00;99.90;;;;;;5120960;28;20433;-41
2022/04/01 04:43:58;;;;;;;14.18;11.65;;;3.90;99.90;;;;;;5120938;28;20051;-46
2022/04/01 04:46:25;;;;;;;13.63;11.68;;;4.00;99.90;;;;;;5119858;28;20548;-44
2022/04/01 04:48:54;;;;;;;13.95;12.43;;;4.00;99.90;;;;;;5119484;28;20073;-42
2022/04/01 04:51:24;;;;;;;13.32;11.32;;;4.00;99.90;;;;;;5119672;28;20023;-44
2022/04/01 04:53:50;;;;;;;12.75;11.45;;;4.00;99.90;;;;;;5119520;28;20494;-47
2022/04/01 04:56:18;;;;;;;13.02;11.73;;;4.00;99.90;;;;;;5119276;28;20457;-47
2022/04/01 04:58:44;;;;;;;13.23;11.57;;;4.10;99.90;;;;;;5119409;28;20482;-43
2022/04/01 05:01:52;;;;;;;12.85;11.55;;;4.10;99.90;;;;;;5119074;28;20023;-45
2022/04/01 05:04:39;;;;;;;11.65;10.45;;;4.00;99.90;;;;;;5036492;28;20382;-47
2022/04/01 05:07:20;;;;;;;11.75;10.52;;;4.00;99.90;;;;;;5114609;28;20043;-38
2022/04/01 05:10:18;;;;;;;12.70;11.32;;;3.90;99.90;;;;;;5100824;28;20027;-38
2022/04/01 05:13:02;;;;;;;17.33;12.00;;;3.90;99.90;;;;;;5119522;28;20081;-39
2022/04/01 05:15:34;;;;;;;11.98;10.70;;;3.90;99.90;;;;;;5102376;28;20023;-44
2022/04/01 05:18:22;;;;;;;17.52;12.85;;;4.00;99.90;;;;;;5119887;28;20020;-44
2022/04/01 05:21:01;;;;;;;16.88;10.95;;;4.00;99.90;;;;;;5118071;28;20036;-45
2022/04/01 05:23:42;;;;;;;12.38;10.60;;;3.90;99.90;;;;;;5120007;28;20096;-48
2022/04/01 05:26:13;;;;;;;12.25;10.77;;;3.90;99.90;;;;;;5119798;28;20024;-43
2022/04/01 05:28:48;;;;;;;16.65;10.10;;;3.90;99.90;;;;;;5120042;28;20024;-39
2022/04/01 05:31:20;;;;;;;14.25;10.63;;;3.90;99.90;;;;;;5120801;28;20436;-44
2022/04/01 05:34:03;;;;;;;12.52;11.00;;;3.80;99.90;;;;;;5119970;28;20387;-49
2022/04/01 05:36:30;;;;;;;14.13;11.75;;;3.70;99.90;;;;;;5120347;28;20083;-43
2022/04/01 05:38:57;;;;;;;13.00;11.63;;;3.70;99.90;;;;;;5119736;28;20023;-45
2022/04/01 05:41:23;;;;;;;14.30;11.75;;;3.70;99.90;;;;;;5119722;28;20019;-43
2022/04/01 05:43:48;;;;;;;15.82;12.25;;;3.70;99.90;;;;;;5118625;28;20091;-40
2022/04/01 05:46:16;;;;;;;13.15;11.27;;;3.80;99.90;;;;;;5119376;28;20112;-45
2022/04/01 05:48:42;;;;;;;13.48;11.05;;;3.80;99.90;;;;;;5099829;28;20019;-48
2022/04/01 05:51:11;;;;;;;12.85;11.20;;;3.70;99.90;;;;;;5119327;28;20235;-45
2022/04/01 05:53:37;;;;;;;12.15;10.85;;;3.60;99.90;;;;;;5100831;28;20019;-45
2022/04/01 05:56:03;;;;;;;13.13;11.45;;;3.60;99.90;;;;;;5099926;28;20027;-47
2022/04/01 05:58:29;;;;;;;16.45;12.32;;;3.60;99.90;;;;;;5118081;28;20039;-43
2022/04/01 06:01:32;;;;;;;15.20;11.40;;;3.60;99.90;;;;;;5123117;28;20031;-45
2022/04/01 06:04:30;;;;;;;13.50;11.05;;;3.50;99.90;;;;;;5120031;28;20063;-44
2022/04/01 06:07:31;;;;;;;14.35;11.48;;;3.50;99.90;;;;;;5118193;28;20036;-44
2022/04/01 06:10:09;;;;;;;13.98;11.00;;;3.50;99.90;;;;;;5117960;28;20132;-41
2022/04/01 06:13:02;;;;;;;16.38;12.15;;;3.50;99.90;;;;;;5117415;28;20095;-38
2022/04/01 06:15:54;;;;;;;11.57;10.30;;;3.40;99.90;;;;;;5118719;28;20019;-41
2022/04/01 06:18:51;;;;;;;12.60;10.77;;;3.50;99.90;;;;;;5118812;28;20024;-40
2022/04/01 06:21:25;;;;;;;16.85;12.13;;;3.50;99.90;;;;;;5100558;28;20063;-45
2022/04/01 06:24:14;;;;;;;12.65;11.15;;;3.50;99.90;;;;;;5118546;28;20075;-46
2022/04/01 06:26:47;;;;;;;13.32;10.55;;;3.60;99.90;;;;;;5118637;28;20114;-51
2022/04/01 06:29:40;;;;;;;13.30;10.75;;;3.60;99.90;;;;;;5117913;28;20051;-44
2022/04/01 06:32:23;;;;;;;13.65;10.73;;;3.60;99.90;;;;;;5118241;28;20501;-49
2022/04/01 06:35:03;;;;;;;12.90;10.73;;;3.60;99.90;;;;;;5119239;28;20024;-44
2022/04/01 06:37:35;;;;;;;14.73;11.05;;;3.50;99.90;;;;;;5118470;28;20024;-46
2022/04/01 06:40:10;;;;;;;14.48;10.93;;;3.50;99.90;;;;;;5118776;28;20023;-45
2022/04/01 06:42:39;;;;;;;12.38;10.98;;;3.60;99.90;;;;;;5101035;28;20502;-43
2022/04/01 06:45:08;;;;;;;13.52;11.05;;;3.60;99.90;;;;;;5119332;28;20027;-45
2022/04/01 06:47:34;;;;;;;14.77;11.68;;;3.60;99.90;;;;;;5119082;28;20026;-48
2022/04/01 06:50:00;;;;;;;17.77;11.52;;;3.60;99.90;;;;;;5100344;28;20015;-43
2022/04/01 06:52:26;;;;;;;14.98;11.57;;;3.60;99.90;;;;;;5100004;28;20041;-41
2022/04/01 06:54:53;;;;;;;13.63;11.32;;;3.50;99.90;;;;;;5117243;28;20030;-43
2022/04/01 06:57:19;;;;;;;14.55;11.73;;;3.50;99.90;;;;;;5098841;28;20490;-47
2022/04/01 06:59:45;;;;;;;15.25;10.77;;;3.50;99.90;;;;;;5100578;28;20028;-49
2022/04/01 07:02:11;;;;;;;15.10;11.35;;;3.40;99.90;;;;;;5117098;28;20038;-47
2022/04/01 07:04:36;;;;;;;14.27;11.93;;;3.40;99.90;;;;;;5117381;28;20023;-46
2022/04/01 07:07:03;;;;;;;14.23;10.18;;;3.50;99.90;;;;;;5117205;28;20024;-43
2022/04/01 07:09:29;;;;;;;14.90;10.80;;;3.40;99.90;;;;;;5117036;28;20024;-45
2022/04/01 07:11:59;;;;;;;15.77;11.35;;;3.40;99.90;;;;;;5117286;28;20024;-44
2022/04/01 07:14:27;;;;;;;18.83;11.38;;;3.40;99.90;;;;;;5117049;28;20471;-44
2022/04/01 07:16:55;;;;;;;13.15;11.10;;;3.30;99.90;;;;;;5098145;28;20076;-40
2022/04/01 07:19:20;;;;;;;15.88;11.32;;;3.40;99.90;;;;;;5117095;28;20034;-47
2022/04/01 07:21:47;;;;;;;14.82;10.93;;;;;;;;;;5117004;28;20606;-49
2022/04/01 07:24:13;;;;;;;11.88;10.25;;;3.30;99.90;;;;;;5119307;28;20379;-44
2022/04/01 07:26:38;;;;;;;16.35;10.52;;;3.30;99.90;;;;;;5121430;28;20019;-42
2022/04/01 07:29:04;;;;;;;16.45;10.07;;;3.30;99.90;;;;;;5121594;28;20035;-45
2022/04/01 07:34:21;;;;;;;19.05;11.00;;;3.30;99.90;;;;;;5121121;28;20034;-43
2022/04/01 07:36:47;;;;;;;13.63;10.80;;;3.30;99.90;;;;;;5121414;28;20020;-44
2022/04/01 07:39:13;;;;;;;20.00;9.88;;;3.40;99.90;;;;;;5103014;28;20114;-47
2022/04/01 07:41:39;;;;;;;12.23;9.13;;;3.50;99.90;;;;;;5101784;28;20028;-46
2022/04/01 07:44:05;;;;;;;15.88;10.52;;;3.30;99.90;;;;;;5119940;28;20031;-45
2022/04/01 07:46:30;;;;;;;13.55;9.38;;;3.20;99.90;;;;;;5101155;28;20084;-44
2022/04/01 07:48:56;;;;;;;15.25;8.98;;;3.20;99.90;;;;;;5118457;28;20098;-46
2022/04/01 07:51:22;;;;;;;11.65;8.85;;;3.10;99.90;;;;;;5118236;28;20497;-47
2022/04/01 07:53:48;;;;;;;13.18;9.77;;;3.10;99.90;;;;;;5100455;28;20024;-42
2022/04/01 07:56:13;;;;;;;14.07;9.98;;;3.10;99.90;;;;;;5118562;28;20129;-43
2022/04/01 07:58:39;;;;;;;11.85;9.55;;;3.10;99.90;;;;;;5120466;28;20484;-41
2022/04/01 08:01:04;;;;;;;10.60;8.13;;;3.10;99.90;;;;;;5123096;28;20080;-45
2022/04/01 08:03:30;;;;;;;11.43;8.30;;;3.10;99.90;;;;;;5124211;28;20020;-43
2022/04/01 08:05:55;;;;;;;9.85;8.02;;;3.10;99.90;;;;;;5122358;28;20063;-43
2022/04/01 08:08:21;;;;;;;11.50;8.98;;;3.20;99.90;;;;;;5123344;28;20417;-45
2022/04/01 08:10:47;;;;;;;13.38;8.35;;;3.20;99.90;;;;;;5121119;28;20429;-49
2022/04/01 08:13:12;;;;;;;9.70;7.95;;;3.20;99.90;;;;;;5119082;28;20054;-44
2022/04/01 08:15:38;;;;;;;10.02;7.85;;;3.30;99.90;;;;;;5100806;28;20427;-38
2022/04/01 08:18:04;;;;;;;9.60;7.40;;;3.20;99.90;;;;;;5119487;28;20055;-43
2022/04/01 08:20:30;;;;;;;9.73;8.52;;;3.30;99.90;;;;;;5119224;28;20028;-43
2022/04/01 08:22:55;;;;;;;9.05;7.18;;;3.30;99.90;;;;;;5119258;28;20390;-39
2022/04/01 08:25:21;;;;;;;10.18;8.57;;;3.20;99.90;;;;;;5116864;28;20073;-39
2022/04/01 08:27:47;;;;;;;11.32;7.80;;;3.10;99.90;;;;;;5118223;28;20045;-44
2022/04/01 08:30:12;;;;;;;9.50;8.05;;;3.20;99.90;;;;;;5101877;28;20020;-43
2022/04/01 08:32:38;;;;;;;8.90;7.15;;;3.20;99.90;;;;;;5119385;28;20079;-43
2022/04/01 08:35:07;;;;;;;15.20;8.93;;;3.10;99.90;;;;;;5116786;28;20027;-40
2022/04/01 08:37:32;;;;;;;11.10;7.72;;;3.10;99.90;;;;;;5116620;28;20046;-39
2022/04/01 08:39:58;;;;;;;12.38;8.48;;;3.10;99.90;;;;;;5118142;28;20027;-45
2022/04/01 08:42:26;;;;;;;10.00;7.80;;;3.10;99.90;;;;;;5117953;28;20070;-44
2022/04/01 08:44:52;;;;;;;11.02;7.50;;;3.10;99.90;;;;;;5117076;28;20035;-38
2022/04/01 08:47:17;;;;;;;9.40;6.82;;;3.10;99.90;;;;;;5117023;28;20023;-43
2022/04/01 08:49:43;;;;;;;14.25;8.98;;;3.10;99.90;;;;;;5116986;28;20023;-41
2022/04/01 08:52:08;;;;;;;13.52;7.55;;;3.10;99.90;;;;;;5116965;28;20028;-45
2022/04/01 08:54:35;;;;;;;9.30;7.55;;;3.00;99.90;;;;;;5118672;28;20023;-46
2022/04/01 08:57:01;;;;;;;10.35;7.82;;;3.10;99.90;;;;;;5117379;28;20024;-44
2022/04/01 08:59:30;;;;;;;12.40;8.10;;;3.10;99.90;;;;;;5118506;28;20095;-48
2022/04/01 09:02:08;;;;;;;9.45;7.70;;;3.10;99.90;;;;;;5118858;28;20066;-39
2022/04/01 09:04:33;;;;;;;8.80;7.38;;;3.10;99.90;;;;;;5119347;28;20035;-41
2022/04/01 09:07:15;;;;;;;11.88;7.78;;;3.20;99.90;;;;;;5118487;28;20020;-46
2022/04/01 09:09:41;;;;;;;9.70;7.40;;;3.00;99.90;;;;;;5117275;28;20028;-44
2022/04/01 09:12:11;;;;;;;11.38;8.25;;;3.10;99.90;;;;;;5118520;28;20432;-44
2022/04/01 09:14:37;;;;;;;9.43;7.10;;;3.10;99.90;;;;;;5119025;28;20023;-44
2022/04/01 09:17:04;;;;;;;8.32;7.47;;;3.20;99.90;;;;;;5118537;28;20102;-39
2022/04/01 09:19:32;;;;;;;10.45;7.50;;;3.20;99.90;;;;;;5119378;28;20028;-45
2022/04/01 09:22:14;;;;;;;9.57;7.35;;;3.20;99.90;;;;;;5118095;28;20030;-47
2022/04/01 09:24:57;;;;;;;8.45;7.07;;;3.20;99.90;;;;;;5118104;28;20093;-48
2022/04/01 09:27:48;;;;;;;13.60;6.60;;;3.20;99.90;;;;;;5118298;28;20024;-45
2022/04/01 09:30:14;;;;;;;9.02;8.10;;;3.20;99.90;;;;;;5100553;28;20023;-44
2022/04/01 09:32:42;;;;;;;8.07;7.22;;;3.30;99.90;;;;;;5101099;28;20042;-47
2022/04/01 09:35:10;;;;;;;11.00;7.45;;;3.30;99.90;;;;;;5099599;28;20038;-43
2022/04/01 09:37:44;;;;;;;8.18;7.15;;;3.30;99.90;;;;;;5117933;28;20066;-48
2022/04/01 09:40:12;;;;;;;10.38;7.20;;;3.30;99.90;;;;;;5118557;28;20028;-46
2022/04/01 09:42:38;;;;;;;13.80;7.80;;;3.20;99.90;;;;;;5119318;28;20054;-47
2022/04/01 09:45:04;;;;;;;8.05;7.07;;;3.20;99.90;;;;;;5099480;28;20056;-46
2022/04/01 09:47:38;;;;;;;11.55;8.27;;;3.10;99.90;;;;;;5116474;28;20031;-44
2022/04/01 09:50:15;;;;;;;8.98;7.20;;;3.10;99.90;;;;;;5117092;28;20020;-44
2022/04/01 09:52:42;;;;;;;8.68;7.50;;;3.10;99.90;;;;;;5117915;28;20023;-44
2022/04/01 09:55:08;;;;;;;9.95;7.40;;;3.20;99.90;;;;;;5118402;28;20071;-47
2022/04/01 09:57:34;;;;;;;10.65;8.25;;;3.20;99.90;;;;;;5099708;28;20111;-45
2022/04/01 10:00:00;;;;;;;9.48;8.23;;;3.20;99.90;;;;;;5117662;28;20051;-39
2022/04/01 10:02:26;;;;;;;8.65;7.13;;;3.30;99.90;;;;;;5118952;28;20539;-47
2022/04/01 10:04:54;;;;;;;10.10;6.85;;;3.30;99.90;;;;;;5117758;28;20019;-46
2022/04/01 10:07:22;;;;;;;11.25;7.78;;;3.20;99.90;;;;;;5116061;28;20024;-45
2022/04/01 10:09:49;;;;;;;8.32;7.20;;;3.20;99.90;;;;;;5116617;28;20094;-39
2022/04/01 10:12:18;;;;;;;8.80;7.90;;;3.20;99.90;;;;;;5097950;28;20020;-44
2022/04/01 10:14:45;;;;;;;8.00;6.88;;;3.20;99.90;;;;;;5116266;28;20058;-43
2022/04/01 10:17:14;;;;;;;11.55;7.65;;;3.10;99.90;;;;;;5114851;28;20087;-48
2022/04/01 10:19:42;;;;;;;9.02;7.18;;;3.00;99.90;;;;;;5115357;28;20058;-43
2022/04/01 10:22:11;;;;;;;16.83;8.50;;;3.00;99.90;;;;;;5126851;22;20039;-42
2022/04/01 10:25:06;;;;;;;9.73;7.80;;;3.10;99.90;;;;;;5112457;28;20012;-41
2022/04/01 10:27:46;;;;;;;9.63;8.05;;;3.10;99.90;;;;;;5111996;28;20110;-40
2022/04/01 10:30:17;;;;;;;12.20;8.18;;;3.10;99.90;;;;;;5094216;28;20026;-42
2022/04/01 10:32:45;;;;;;;16.27;10.07;;;3.00;99.90;;;;;;5112372;28;20075;-41
2022/04/01 10:35:26;;;;;;;9.32;7.20;;;2.90;99.90;;;;;;5112265;28;20043;-42
2022/04/01 10:37:54;;;;;;;10.13;7.55;;;2.70;99.90;;;;;;5111981;28;20024;-46
2022/04/01 10:40:19;;;;;;;9.68;7.72;;;2.60;99.90;;;;;;5112153;28;20023;-41
2022/04/01 10:42:48;;;;;;;12.50;8.50;;;2.60;99.90;;;;;;5094418;28;20020;-42
2022/04/01 10:45:13;;;;;;;8.73;7.70;;;2.60;99.90;;;;;;5094077;28;20020;-41
2022/04/01 10:51:50;;;;;;;11.43;8.80;;;2.70;99.90;;;;;;5112605;28;20064;-41
2022/04/01 10:53:47;;;;;;;12.73;8.35;;;2.70;99.90;;;;;;5098488;28;20076;-42
2022/04/01 10:56:24;;;;;;;11.02;8.73;;;2.70;99.90;;;;;;5112026;28;20023;-41
2022/04/01 10:59:09;;;;;;;12.45;9.40;;;2.80;99.90;;;;;;5114939;28;20028;-45
2022/04/01 11:01:52;;;;;;;9.85;8.52;;;2.80;99.90;;;;;;5116160;28;20529;-43
2022/04/01 11:04:18;;;;;;;10.45;9.07;;;2.90;99.90;;;;;;5116309;28;20031;-43
2022/04/01 11:07:06;;;;;;;13.10;9.00;;;2.90;99.90;;;;;;5115946;28;20035;-43
2022/04/01 11:09:34;;;;;;;12.95;8.13;;;2.90;99.90;;;;;;5115861;28;20023;-42
2022/04/01 11:12:25;;;;;;;13.27;7.80;;;2.90;99.90;;;;;;5097974;28;20410;-40
2022/04/01 11:14:53;;;;;;;9.60;8.30;;;3.00;99.90;;;;;;5116109;28;20030;-40
2022/04/01 11:17:20;;;;;;;11.43;7.55;;;2.90;99.90;;;;;;5115639;28;20035;-45
2022/04/01 11:20:14;;;;;;;9.15;7.82;;;2.80;99.90;;;;;;5116067;28;20023;-42
2022/04/01 11:22:59;;;;;;;10.07;8.05;;;2.80;99.90;;;;;;5115492;28;20111;-41
2022/04/01 11:25:25;;;;;;;10.23;7.73;;;2.70;99.90;;;;;;5115567;28;20154;-42
2022/04/01 11:27:51;;;;;;;8.48;7.57;;;2.60;99.90;;;;;;5115506;28;20077;-42
2022/04/01 11:30:24;;;;;;;8.50;7.53;;;2.70;99.90;;;;;;5115537;28;20387;-41
2022/04/01 11:32:56;;;;;;;8.60;7.05;;;2.70;99.90;;;;;;5115321;28;20024;-39
2022/04/01 11:35:24;;;;;;;7.65;6.93;;;2.80;99.90;;;;;;5115368;28;20141;-43
2022/04/01 11:37:50;;;;;;;8.70;7.82;;;2.80;99.90;;;;;;5115041;28;20042;-39
2022/04/01 11:40:27;;;;;;;11.07;7.78;;;2.80;99.90;;;;;;5114984;28;20110;-42
2022/04/01 11:43:06;;;;;;;8.73;7.60;;;2.90;99.90;;;;;;5115356;28;20398;-43
2022/04/01 11:45:34;;;;;;;9.30;6.90;;;2.90;99.90;;;;;;5115064;28;20039;-41
2022/04/01 11:48:02;;;;;;;12.73;6.82;;;2.90;99.90;;;;;;5115237;28;20023;-44
2022/04/01 11:50:27;;;;;;;7.38;6.68;;;2.80;99.90;;;;;;5114974;28;20398;-39
2022/04/01 11:52:57;;;;;;;122.95;71.10;;;3.00;99.90;;;;;;5115457;28;20015;-41
2022/04/01 11:55:27;;;;;;;7.97;7.18;;;3.00;99.90;;;;;;5097114;28;20108;-46
2022/04/01 11:57:55;;;;;;;7.40;6.57;;;3.10;99.90;;;;;;5117190;28;20038;-42
2022/04/01 12:00:23;;;;;;;7.05;6.20;;;3.00;99.90;;;;;;5114690;28;20498;-41
2022/04/01 12:02:53;;;;;;;12.05;6.55;;;3.00;99.90;;;;;;5114993;28;20028;-39
2022/04/01 12:05:20;;;;;;;7.28;6.38;;;2.90;99.90;;;;;;5115469;28;20103;-39
2022/04/01 12:10:40;;;;;;;8.27;7.45;;;2.70;99.90;;;;;;5112411;28;20038;-40
2022/04/01 12:13:09;;;;;;;10.75;7.53;;;2.60;99.90;;;;;;5095135;28;20020;-42
2022/04/01 12:15:35;;;;;;;9.40;7.70;;;2.80;99.90;;;;;;5114434;28;20479;-40
2022/04/01 12:18:05;;;;;;;8.75;7.05;;;2.70;99.90;;;;;;5115681;28;20114;-42
2022/04/01 12:20:31;;;;;;;11.45;8.80;;;2.80;99.90;;;;;;5115884;28;20027;-43
2022/04/01 12:22:59;;;;;;;8.82;7.93;;;2.90;99.90;;;;;;5115402;28;20039;-40
2022/04/01 12:25:27;;;;;;;9.60;7.80;;;2.90;99.90;;;;;;5114669;28;20028;-42
2022/04/01 12:27:57;;;;;;;11.85;7.68;;;2.90;99.90;;;;;;5113995;28;20020;-42
2022/04/01 12:30:33;;;;;;;9.93;7.97;;;2.70;99.90;;;;;;5114436;28;20539;-42
2022/04/01 12:33:01;;;;;;;10.27;7.57;;;2.60;99.90;;;;;;5114415;28;20026;-43
2022/04/01 12:35:27;;;;;;;10.40;7.85;;;2.60;99.90;;;;;;5114252;28;20030;-40
2022/04/01 12:38:04;;;;;;;9.85;8.30;;;2.50;99.90;;;;;;5113922;28;20031;-43
2022/04/01 12:40:44;;;;;;;11.30;9.05;;;2.50;99.90;;;;;;5114206;28;20505;-42
2022/04/01 12:43:43;;;;;;;14.55;9.25;;;2.50;99.90;;;;;;5095826;28;20072;-41
2022/04/01 12:46:15;;;;;;;9.98;8.73;;;2.50;99.90;;;;;;5114143;28;20344;-43
2022/04/01 12:48:53;;;;;;;18.65;9.82;;;2.50;99.90;;;;;;5113866;28;20024;-41
2022/04/01 12:51:25;;;;;;;13.00;10.10;;;2.50;99.90;;;;;;5114381;28;20020;-40
2022/04/01 12:54:02;;;;;;;13.30;8.05;;;2.60;99.90;;;;;;5113996;28;20028;-46
2022/04/01 12:56:29;;;;;;;10.45;8.50;;;2.50;99.90;;;;;;5113825;28;20035;-43
2022/04/01 12:58:58;;;;;;;9.35;8.40;;;2.40;99.90;;;;;;5113781;28;20031;-42
2022/04/01 13:01:28;;;;;;;9.75;8.43;;;2.50;99.90;;;;;;5114023;28;20031;-42
2022/04/01 13:03:56;;;;;;;11.48;8.73;;;2.50;99.90;;;;;;5114093;28;20050;-40
2022/04/01 13:06:23;;;;;;;12.52;8.65;;;2.40;99.90;;;;;;5113832;28;20028;-42
2022/04/01 13:09:02;;;;;;;10.57;8.30;;;2.40;99.90;;;;;;5113920;28;20104;-40
2022/04/01 13:11:34;;;;;;;9.45;8.10;;;2.30;99.90;;;;;;5113842;28;20098;-41